Ackley, Iowa
Current Conditions -  °F | °C
As of 1:35 PM on Wednesday 17 Dec 2014 (Local Time) from KIFA Reporting Station
Clear Clear  
Wind Chill: 14°   Ceiling: Unl
Heat Index: 23°   Visibility: 10mi
Dew Point: 17°   Wind: 8mph
Humidity: 75%   Direction: 330°NNW
Pressure: 30.28"   Gusts: NA
Location:  42.55°N, 93.05°W
Report Text: KIFA 171935Z AUTO 33007KT 10SM CLR M05/M09 A3028 RMK AO2 T10481086
Loading
Personal Weather Stations






























Interactive Weather Map New forecast layout! Learn more

10-Day Weather Forecast

Advertisements
Track Severe Weather on mobile